Station: Cressy  

  Atmospheric Gas Attenuation - ITU Rec 676-11   ----------------- dB/100km -----------------
Date Time Temp RH % AH g/m3 Dew Point Wind Direction Speed kph Gust kph Barometer mB Rainfall Since 9am 24GHz 47GHz 76GHz 122GHz 134GHz 241GHz
08/05 12:30 15.2 51 6.62 5.1 17 24 1013.1 0 15.3 22.5 31.6 82.6 71.9 245.8
08/05 12:20 15.2 50 6.49 4.9 15 17 1013.1 0 15.0 22.3 31.1 81.3 70.3 240.4
08/05 12:10 15 51 6.54 5 13 15 1013.1 0 15.2 22.4 31.4 82.0 71.1 243.1
08/05 12:00 14.7 53 6.67 5.2 17 24 1013.1 0 15.4 22.7 32.0 83.6 73.0 249.5
08/05 11:50 14.3 50 6.14 4 19 26 1013.1 0 14.3 22.0 30.2 78.8 66.9 228.3
08/05 11:40 14.1 54 6.55 4.9 19 22 1013.1 0 15.2 22.6 31.8 83.0 72.1 246.2
08/05 11:30 13.2 55 6.32 4.4 19 28 1013.1 0 14.8 22.5 31.3 81.7 70.1 239.1
08/05 11:20 12.8 56 6.27 4.3 17 22 1013.1 0 14.7 22.5 31.2 81.6 69.8 238.1
08/05 11:10 12.8 56 6.27 4.3 26 28 1013.1 0 14.7 22.5 31.2 81.6 69.8 238.1
08/05 11:00 13 56 6.35 4.4 22 35 1013.1 0 14.8 22.6 31.5 82.2 70.6 241.0
08/05 10:50 13.3 53 6.12 3.9 22 26 1013.1 0 14.3 22.2 30.5 79.6 67.5 230.3
08/05 10:40 13.7 53 6.28 4.3 20 24 1013.1 0 14.7 22.3 30.9 80.8 69.1 235.9
08/05 10:30 14.6 49 6.13 4 15 26 1013.1 0 14.3 21.9 30.0 78.4 66.6 227.0
08/05 10:20 14.3 52 6.39 4.6 13 17 1013.1 0 14.9 22.3 31.1 81.2 69.9 238.8
08/05 10:10 14.2 49 5.98 3.7 7 9 1013.1 0 14.0 21.8 29.7 77.4 65.1 221.9
08/05 10:00 14.5 48 5.97 3.6 9 17 1013.1 0 14.0 21.7 29.5 77.0 64.8 220.6
08/05 09:50 14.6 51 6.38 4.6 11 13 1013.1 0 14.8 22.2 31.0 80.8 69.6 237.5
08/05 09:40 13.9 52 6.23 4.2 13 15 1013.1 0 14.5 22.2 30.7 80.1 68.4 233.2
08/05 09:30 13.3 57 6.59 5 15 24 1013.1 0 15.3 22.9 32.2 84.2 73.3 250.4
08/05 09:20 13 56 6.35 4.4 15 19 1013.1 0 14.8 22.6 31.5 82.2 70.6 241.0
08/05 09:10 13.5 55 6.43 4.6 9 13 1013.1 0 15.0 22.6 31.6 82.4 71.1 242.9
08/05 09:00 13.3 52 6.01 3.7 7 15 1013.1 0 14.1 22.0 30.1 78.5 66.2 225.6
08/05 08:50 12.9 56 6.31 4.3 9 11 1013.1 0 14.7 22.6 31.3 81.9 70.2 239.6
08/05 08:40 12.6 58 6.42 4.6 6 9 1013.1 0 15.0 22.8 31.9 83.3 71.8 245.2
08/05 08:30 12.4 59 6.45 4.6 17 24 1013.1 0 15.1 22.9 32.1 83.8 72.4 247.1
08/05 08:20 11.8 63 6.63 5 17 20 1013.1 0 15.5 23.3 33.0 86.2 75.2 256.9
08/05 08:10 11.7 61 6.38 4.4 24 28 1013.1 0 14.9 23.0 32.1 83.8 72.2 246.2
08/05 08:00 11.6 61 6.34 4.3 17 26 1013.1 0 14.9 22.9 32.0 83.5 71.7 244.8
08/05 07:50 11.1 64 6.45 4.6 19 22 1013.1 0 15.1 23.2 32.6 85.2 73.6 251.2
08/05 07:40 11 64 6.41 4.5 9 11 1013.1 0 15.0 23.2 32.5 84.8 73.2 249.7
08/05 07:30 10.9 64 6.37 4.4 15 24 1013.1 0 15.0 23.2 32.4 84.5 72.8 248.3
08/05 07:20 10.7 63 6.19 4 15 17 1013.1 0 14.6 22.9 31.8 82.9 70.7 241.0
08/05 07:10 10.3 64 6.13 3.8 13 15 1013.1 0 14.5 22.9 31.7 82.7 70.3 239.5
08/05 07:00 10.5 63 6.11 3.8 19 33 1013.1 0 14.4 22.9 31.5 82.3 69.9 238.0
08/05 06:50 10.1 65 6.15 3.8 17 19 1013.1 0 14.5 23.0 31.8 83.1 70.7 241.0
08/05 06:40 10.2 66 6.28 4.1 15 17 1013.1 0 14.8 23.2 32.3 84.4 72.3 246.5
08/05 06:30 10.9 63 6.27 4.1 11 20 1013.1 0 14.7 23.0 32.0 83.5 71.5 243.9
08/05 06:20 10.4 64 6.17 3.9 9 11 1013.1 0 14.5 23.0 31.8 83.0 70.7 241.0
08/05 06:10 10.6 63 6.15 3.9 17 19 1013.1 0 14.5 22.9 31.6 82.6 70.3 239.5
08/05 06:00 11 61 6.11 3.8 20 43 1013.1 0 14.4 22.7 31.3 81.8 69.4 236.5
08/05 05:50 11.2 60 6.08 3.7 20 28 1013.1 0 14.3 22.6 31.1 81.3 68.9 234.6
08/05 05:40 11.5 60 6.2 4 28 32 1013.1 0 14.6 22.7 31.5 82.2 70.1 239.0
08/05 05:30 11.1 60 6.04 3.6 17 28 1013.1 0 14.2 22.6 31.0 81.0 68.5 233.2
08/05 05:20 11.4 60 6.16 3.9 19 20 1013.1 0 14.5 22.7 31.4 81.9 69.7 237.5
08/05 05:10 10.9 61 6.07 3.7 15 19 1013.1 0 14.3 22.7 31.2 81.5 69.0 235.1
08/05 05:00 11.1 60 6.04 3.6 19 28 1013.1 0 14.2 22.6 31.0 81.0 68.5 233.2
08/05 04:50 11.4 59 6.06 3.7 15 20 1013.1 0 14.3 22.6 31.0 80.9 68.4 233.2
08/05 04:40 11.3 60 6.12 3.8 13 15 1013.1 0 14.4 22.7 31.3 81.6 69.3 236.1
08/05 04:30 11.5 61 6.3 4.3 11 24 1013.1 0 14.8 22.9 31.9 83.2 71.3 243.4
08/05 04:20 11.5 61 6.3 4.3 7 9 1013.1 0 14.8 22.9 31.9 83.2 71.3 243.4
08/05 04:10 9.9 71 6.63 4.9 9 11 1013.1 0 15.5 23.8 33.8 88.3 77.0 263.1
08/05 04:00 10.7 66 6.48 4.6 6 11 1013.1 0 15.2 23.4 32.9 85.9 74.3 253.8
08/05 03:50 11.2 64 6.49 4.7 11 11 1013.1 0 15.2 23.3 32.7 85.5 74.0 252.7
08/05 03:40 11.3 64 6.53 4.7 13 13 1013.1 0 15.3 23.3 32.8 85.8 74.4 254.1
08/05 03:30 10.7 67 6.58 4.8 13 19 1013.1 0 15.4 23.5 33.2 86.9 75.6 258.3
08/05 03:20 10.8 64 6.33 4.3 13 15 1013.1 0 14.9 23.1 32.2 84.2 72.4 246.8
08/05 03:10 9.7 69 6.36 4.3 11 11 1013.1 0 15.0 23.4 32.8 85.7 73.8 251.6
08/05 03:00 10.5 67 6.5 4.6 7 11 1013.1 0 15.2 23.5 33.0 86.3 74.8 255.3
08/05 02:50 8.3 81 6.83 5.2 7 9 1013.1 0 16.0 24.6 35.3 92.3 81.3 277.8
08/05 02:40 6.5 91 6.83 5.1 9 13 1013.1 0 16.1 25.1 36.1 94.4 83.2 284.3
08/05 02:30 6.8 89 6.81 5.1 17 24 1013.1 0 16.1 25.0 35.9 93.8 82.6 282.2
08/05 02:20 6.4 93 6.93 5.4 17 17 1013.1 0 16.3 25.3 36.5 95.7 84.7 289.4
08/05 02:10 7.2 87 6.83 5.2 17 20 1013.1 0 16.1 24.9 35.8 93.6 82.5 281.7
08/05 02:00 8.2 81 6.79 5.1 11 19 1013.1 0 16.0 24.5 35.1 92.0 80.9 276.3
08/05 01:50 6.1 94 6.87 5.2 13 17 1013.1 0 16.2 25.3 36.4 95.4 84.2 287.7
08/05 01:40 4.6 94 6.22 3.7 0 0 1013.1 0 14.9 24.6 34.4 89.9 76.9 261.7
08/05 01:30 5.4 97 6.77 5 2 6 1013.1 0 16.0 25.3 36.3 95.1 83.6 285.4
08/05 01:20 5.2 95 6.55 4.5 4 6 1013.1 0 15.6 25.0 35.5 92.9 80.8 275.5
08/05 01:10 5 93 6.32 4 6 7 1013.1 0 15.1 24.6 34.6 90.6 77.8 265.2
08/05 01:00 4.9 94 6.35 4 4 9 1013.1 0 15.1 24.7 34.8 91.0 78.3 267.0
08/05 00:50 5.3 93 6.45 4.3 0 0 1013.1 0 15.3 24.8 35.0 91.7 79.3 270.4
08/05 00:40 6.2 93 6.84 5.2 6 6 1013.1 0 16.1 25.2 36.2 94.9 83.7 285.9
08/05 00:30 6.2 93 6.84 5.2 9 11 1013.1 0 16.1 25.2 36.2 94.9 83.7 285.9
08/05 00:20 6.2 93 6.84 5.2 9 11 1013.1 0 16.1 25.2 36.2 94.9 83.7 285.9
08/05 00:10 6.2 91 6.7 4.8 9 11 1013.1 0 15.8 24.9 35.7 93.4 81.8 279.2
08/05 00:00 6.5 90 6.75 5 13 17 1013.1 0 15.9 24.9 35.7 93.5 82.1 280.5
07/05 23:50 6.9 89 6.85 5.2 11 13 1013.1 0 16.1 25.0 36.0 94.2 83.0 283.8
07/05 23:40 7 89 6.9 5.3 15 17 1013.1 0 16.2 25.0 36.1 94.6 83.6 285.8
07/05 23:30 6.8 89 6.81 5.1 13 17 1013.1 0 16.1 25.0 35.9 93.8 82.6 282.2
07/05 23:20 6.9 89 6.85 5.2 15 17 1013.1 0 16.1 25.0 36.0 94.2 83.0 283.8
07/05 23:10 6.5 90 6.75 5 13 15 1013.1 0 15.9 24.9 35.7 93.5 82.1 280.5
07/05 23:00 6.4 91 6.78 5 9 13 1013.1 0 16.0 25.0 35.9 94.0 82.6 282.3
07/05 22:50 6.4 89 6.64 4.7 11 13 1013.1 0 15.7 24.8 35.3 92.5 80.7 275.6
07/05 22:40 6.1 90 6.58 4.6 13 17 1013.1 0 15.6 24.8 35.2 92.2 80.2 273.8
07/05 22:30 6.2 89 6.55 4.5 9 17 1013.1 0 15.5 24.7 35.1 91.7 79.7 272.0
07/05 22:20 6.4 89 6.64 4.7 7 9 1013.1 0 15.7 24.8 35.3 92.5 80.7 275.6
07/05 22:10 5.8 91 6.52 4.4 7 9 1013.1 0 15.5 24.8 35.1 91.8 79.7 272.0
07/05 22:00 6.2 87 6.4 4.2 9 17 1013.1 0 15.2 24.4 34.4 90.1 77.7 264.9
07/05 21:50 6.6 90 6.8 5.1 7 11 1013.1 0 16.0 25.0 35.9 94.0 82.7 282.5
07/05 21:40 6.5 89 6.68 4.8 7 9 1013.1 0 15.8 24.8 35.5 92.8 81.2 277.1
07/05 21:30 6.2 87 6.4 4.2 15 26 1013.1 0 15.2 24.4 34.4 90.1 77.7 264.9
07/05 21:20 6.5 84 6.3 4 15 17 1013.1 0 15.0 24.2 33.9 88.6 76.1 259.2
07/05 21:10 6.7 83 6.31 4 19 28 1013.1 0 15.0 24.2 33.9 88.5 76.0 259.0
07/05 21:00 6.7 83 6.31 4 22 33 1013.1 0 15.0 24.2 33.9 88.5 76.0 259.0
07/05 20:50 6.5 84 6.3 4 22 28 1013.1 0 15.0 24.2 33.9 88.6 76.1 259.2
07/05 20:40 6.4 84 6.26 3.9 22 28 1013.1 0 14.9 24.2 33.8 88.3 75.6 257.7
07/05 20:30 6.1 85 6.21 3.8 22 32 1013.1 0 14.8 24.2 33.7 88.1 75.2 256.3
07/05 20:20 6.1 84 6.14 3.6 20 28 1013.1 0 14.6 24.0 33.4 87.4 74.3 253.0
07/05 20:10 6.3 82 6.07 3.5 20 26 1013.1 0 14.5 23.9 33.1 86.4 73.2 249.1
07/05 20:00 6.4 82 6.11 3.6 19 26 1013.1 0 14.6 23.9 33.2 86.7 73.6 250.7

Last Refresh: 08-May-2026 12:08:52

Bureau of Meteorology